createdAt,value
2017-12-23T00:00:22.479Z,923.6
2017-12-23T00:00:50.701Z,923.61
2017-12-23T00:01:18.699Z,923.59
2017-12-23T00:01:46.683Z,923.58
2017-12-23T00:02:14.763Z,923.59
2017-12-23T00:02:42.852Z,923.59
2017-12-23T00:03:10.953Z,923.58
2017-12-23T00:03:39.052Z,923.59
2017-12-23T00:04:07.156Z,923.59
2017-12-23T00:04:35.142Z,923.59
2017-12-23T00:05:03.123Z,923.54
2017-12-23T00:06:14.259Z,923.55
2017-12-23T00:06:42.483Z,923.55
2017-12-23T00:07:10.570Z,923.54
2017-12-23T00:07:38.666Z,923.56
2017-12-23T00:08:06.855Z,923.53
2017-12-23T00:08:35.044Z,923.56
2017-12-23T00:09:03.238Z,923.55
2017-12-23T00:09:31.430Z,923.53
2017-12-23T00:09:59.442Z,923.52
2017-12-23T00:10:27.625Z,923.56
2017-12-23T00:10:55.712Z,923.5
2017-12-23T00:12:06.846Z,923.53
2017-12-23T00:12:34.873Z,923.55
2017-12-23T00:13:03.061Z,923.58
2017-12-23T00:13:31.256Z,923.59
2017-12-23T00:13:59.440Z,923.55
2017-12-23T00:14:27.629Z,923.58
2017-12-23T00:14:55.827Z,923.6
2017-12-23T00:15:24.027Z,923.61
2017-12-23T00:15:52.132Z,923.61
2017-12-23T00:16:20.010Z,923.64
2017-12-23T00:16:53.003Z,923.63
2017-12-23T00:18:04.233Z,923.67
2017-12-23T00:18:32.459Z,923.67
2017-12-23T00:19:00.650Z,923.65
2017-12-23T00:19:28.739Z,923.65
2017-12-23T00:19:56.920Z,923.69
2017-12-23T00:20:25.012Z,923.71
2017-12-23T00:20:53.014Z,923.71
2017-12-23T00:21:21.106Z,923.67
2017-12-23T00:21:49.216Z,923.68
2017-12-23T00:22:17.097Z,923.71
2017-12-23T00:22:45.275Z,923.75
2017-12-23T00:23:56.503Z,923.71
2017-12-23T00:24:24.736Z,923.76
2017-12-23T00:24:52.920Z,923.73
2017-12-23T00:25:20.914Z,923.73
2017-12-23T00:25:49.096Z,923.72
2017-12-23T00:26:17.282Z,923.74
2017-12-23T00:26:45.383Z,923.73
2017-12-23T00:27:13.483Z,923.72
2017-12-23T00:27:41.590Z,923.76
2017-12-23T00:28:09.468Z,923.77
2017-12-23T00:28:37.455Z,923.79
2017-12-23T00:29:48.684Z,923.8
2017-12-23T00:30:16.815Z,923.77
2017-12-23T00:30:45.010Z,923.81
2017-12-23T00:31:13.196Z,923.77
2017-12-23T00:31:41.278Z,923.78
2017-12-23T00:32:09.365Z,923.76
2017-12-23T00:32:37.374Z,923.79
2017-12-23T00:33:05.566Z,923.76
2017-12-23T00:33:33.775Z,923.78
2017-12-23T00:34:01.856Z,923.78
2017-12-23T00:34:29.948Z,923.77
2017-12-23T00:35:41.177Z,923.74
2017-12-23T00:36:09.402Z,923.76
2017-12-23T00:36:37.590Z,923.74
2017-12-23T00:37:05.683Z,923.76
2017-12-23T00:37:33.760Z,923.73
2017-12-23T00:38:01.849Z,923.74
2017-12-23T00:38:29.953Z,923.75
2017-12-23T00:38:58.046Z,923.77
2017-12-23T00:39:26.257Z,923.76
2017-12-23T00:39:54.234Z,923.75
2017-12-23T00:40:22.416Z,923.79
2017-12-23T00:41:33.642Z,923.79
2017-12-23T00:42:01.774Z,923.84
2017-12-23T00:42:29.871Z,923.83
2017-12-23T00:42:57.859Z,923.85
2017-12-23T00:43:26.038Z,923.84
2017-12-23T00:43:54.226Z,923.89
2017-12-23T00:44:22.327Z,923.87
2017-12-23T00:44:50.515Z,923.88
2017-12-23T00:45:18.626Z,923.89
2017-12-23T00:45:46.703Z,923.89
2017-12-23T00:46:14.889Z,923.91
2017-12-23T00:47:26.010Z,923.93
2017-12-23T00:47:54.237Z,923.99
2017-12-23T00:48:22.325Z,923.99
2017-12-23T00:48:50.416Z,924.02
2017-12-23T00:49:18.594Z,923.99
2017-12-23T00:49:46.685Z,923.96
2017-12-23T00:50:14.779Z,924.03
2017-12-23T00:50:42.966Z,923.99
2017-12-23T00:51:10.974Z,923.99
2017-12-23T00:51:39.143Z,923.99
2017-12-23T00:52:07.324Z,924.04
2017-12-23T00:53:18.457Z,924.03
2017-12-23T00:53:46.588Z,924.03
2017-12-23T00:54:14.680Z,924.03
2017-12-23T00:54:42.767Z,924
2017-12-23T00:55:10.961Z,924.01
2017-12-23T00:55:39.143Z,924.05
2017-12-23T00:56:06.941Z,924.07
2017-12-23T00:56:35.041Z,924.08
2017-12-23T00:57:03.049Z,924.07
2017-12-23T00:57:31.126Z,924.08
2017-12-23T00:57:59.302Z,924.11
2017-12-23T00:59:10.433Z,924.1
2017-12-23T00:59:38.661Z,924.1
2017-12-23T01:00:06.846Z,924.15
2017-12-23T01:00:34.944Z,924.15
2017-12-23T01:01:03.032Z,924.15
2017-12-23T01:01:31.118Z,924.15
2017-12-23T01:01:59.116Z,924.17
2017-12-23T01:02:27.216Z,924.15
2017-12-23T01:02:55.428Z,924.15
2017-12-23T01:03:23.306Z,924.13
2017-12-23T01:03:51.391Z,924.14
2017-12-23T01:05:02.627Z,924.21
2017-12-23T01:05:30.857Z,924.17
2017-12-23T01:05:58.941Z,924.2
2017-12-23T01:06:27.037Z,924.17
2017-12-23T01:06:55.225Z,924.17
2017-12-23T01:07:23.417Z,924.17
2017-12-23T01:07:51.517Z,924.12
2017-12-23T01:08:19.612Z,924.16
2017-12-23T01:08:47.621Z,924.13
2017-12-23T01:09:15.699Z,924.17
2017-12-23T01:09:43.682Z,924.18
2017-12-23T01:10:54.908Z,924.17
2017-12-23T01:11:23.040Z,924.14
2017-12-23T01:11:51.130Z,924.11
2017-12-23T01:12:19.218Z,924.15
2017-12-23T01:12:47.298Z,924.17
2017-12-23T01:13:15.489Z,924.16
2017-12-23T01:13:43.488Z,924.17
2017-12-23T01:14:11.584Z,924.18
2017-12-23T01:14:39.694Z,924.18
2017-12-23T01:15:07.672Z,924.2
2017-12-23T01:15:35.757Z,924.2
2017-12-23T01:16:46.790Z,924.18
2017-12-23T01:17:15.017Z,924.18
2017-12-23T01:17:43.108Z,924.16
2017-12-23T01:18:11.199Z,924.21
2017-12-23T01:18:39.388Z,924.2
2017-12-23T01:19:07.476Z,924.2
2017-12-23T01:19:35.577Z,924.23
2017-12-23T01:20:03.666Z,924.22
2017-12-23T01:20:31.876Z,924.22
2017-12-23T01:21:00.053Z,924.21
2017-12-23T01:21:28.134Z,924.18
2017-12-23T01:22:39.366Z,924.16
2017-12-23T01:23:07.592Z,924.16
2017-12-23T01:23:35.782Z,924.18
2017-12-23T01:24:03.974Z,924.14
2017-12-23T01:24:32.058Z,924.17
2017-12-23T01:25:00.050Z,924.14
2017-12-23T01:25:28.155Z,924.15
2017-12-23T01:25:56.252Z,924.12
2017-12-23T01:26:24.456Z,924.11
2017-12-23T01:26:52.635Z,924.11
2017-12-23T01:27:20.815Z,924.1
2017-12-23T01:28:32.044Z,924.12
2017-12-23T01:29:00.271Z,924.1
2017-12-23T01:29:28.461Z,924.08
2017-12-23T01:29:56.656Z,924.07
2017-12-23T01:30:24.843Z,924.07
2017-12-23T01:30:52.932Z,924.06
2017-12-23T01:31:21.129Z,924.07
2017-12-23T01:31:49.226Z,924.06
2017-12-23T01:32:17.334Z,924.05
2017-12-23T01:32:45.213Z,924.07
2017-12-23T01:33:13.397Z,924.05
2017-12-23T01:34:24.429Z,924.05
2017-12-23T01:34:52.556Z,924.06
2017-12-23T01:35:20.548Z,924.05
2017-12-23T01:35:48.640Z,924.08
2017-12-23T01:36:16.829Z,924.04
2017-12-23T01:36:44.918Z,924.06
2017-12-23T01:37:13.117Z,924.04
2017-12-23T01:37:41.316Z,924.04
2017-12-23T01:38:09.233Z,924.04
2017-12-23T01:38:37.310Z,923.99
2017-12-23T01:39:05.396Z,923.98
2017-12-23T01:40:16.625Z,924.02
2017-12-23T01:40:44.752Z,924
2017-12-23T01:41:12.938Z,924.02
2017-12-23T01:41:41.026Z,924.01
2017-12-23T01:42:09.105Z,924
2017-12-23T01:42:37.093Z,923.98
2017-12-23T01:43:05.196Z,924
2017-12-23T01:43:33.293Z,924.02
2017-12-23T01:44:01.402Z,924.05
2017-12-23T01:44:29.581Z,924.05
2017-12-23T01:44:57.767Z,924.01
2017-12-23T01:46:08.797Z,924.03
2017-12-23T01:46:36.824Z,924
2017-12-23T01:47:05.012Z,924.02
2017-12-23T01:47:33.206Z,924.02
2017-12-23T01:48:01.391Z,924.05
2017-12-23T01:48:29.478Z,924
2017-12-23T01:48:57.576Z,924.02
2017-12-23T01:49:25.669Z,923.99
2017-12-23T01:49:53.777Z,924.02
2017-12-23T01:50:21.754Z,924
2017-12-23T01:50:49.742Z,923.98
2017-12-23T01:52:00.765Z,924
2017-12-23T01:52:28.893Z,924.01
2017-12-23T01:52:56.983Z,924.01
2017-12-23T01:53:24.975Z,924
2017-12-23T01:53:53.151Z,924
2017-12-23T01:54:21.339Z,924.01
2017-12-23T01:54:49.339Z,923.97
2017-12-23T01:55:17.435Z,924.01
2017-12-23T01:55:45.638Z,923.99
2017-12-23T01:56:13.772Z,923.96
2017-12-23T01:56:41.957Z,923.96
2017-12-23T01:57:53.236Z,923.97
2017-12-23T01:58:21.608Z,924
2017-12-23T01:58:49.800Z,923.97
2017-12-23T01:59:17.793Z,923.97
2017-12-23T01:59:46.122Z,923.97
2017-12-23T02:00:14.310Z,923.98
2017-12-23T02:00:42.111Z,923.95
2017-12-23T02:01:10.304Z,923.91
2017-12-23T02:01:38.415Z,923.93
2017-12-23T02:02:06.494Z,923.92
2017-12-23T02:02:34.580Z,923.87
2017-12-23T02:03:45.811Z,923.93
2017-12-23T02:04:13.938Z,923.92
2017-12-23T02:04:42.127Z,923.91
2017-12-23T02:05:10.321Z,923.94
2017-12-23T02:05:38.496Z,923.94
2017-12-23T02:06:06.489Z,923.95
2017-12-23T02:06:34.497Z,923.94
2017-12-23T02:07:02.595Z,923.95
2017-12-23T02:07:30.605Z,923.93
2017-12-23T02:07:58.780Z,923.9
2017-12-23T02:08:26.963Z,923.92
2017-12-23T02:09:38.094Z,923.91
2017-12-23T02:10:06.118Z,923.94
2017-12-23T02:10:34.307Z,923.94
2017-12-23T02:11:02.198Z,923.91
2017-12-23T02:11:30.284Z,923.94
2017-12-23T02:11:58.475Z,923.91
2017-12-23T02:12:26.575Z,923.89
2017-12-23T02:12:54.668Z,923.91
2017-12-23T02:13:22.881Z,923.91
2017-12-23T02:13:50.861Z,923.89
2017-12-23T02:14:18.947Z,923.87
2017-12-23T02:15:30.078Z,923.9
2017-12-23T02:15:58.205Z,923.9
2017-12-23T02:16:26.389Z,923.86
2017-12-23T02:16:54.579Z,923.87
2017-12-23T02:17:22.659Z,923.86
2017-12-23T02:17:50.750Z,923.89
2017-12-23T02:18:18.846Z,923.86
2017-12-23T02:18:46.939Z,923.87
2017-12-23T02:19:15.150Z,923.87
2017-12-23T02:19:43.225Z,923.87
2017-12-23T02:20:11.213Z,923.81
2017-12-23T02:21:22.341Z,923.79
2017-12-23T02:21:50.575Z,923.81
2017-12-23T02:22:18.762Z,923.81
2017-12-23T02:22:46.956Z,923.81
2017-12-23T02:23:15.140Z,923.78
2017-12-23T02:23:43.030Z,923.78
2017-12-23T02:24:11.130Z,923.78
2017-12-23T02:24:39.330Z,923.83
2017-12-23T02:25:07.434Z,923.75
2017-12-23T02:25:35.413Z,923.77
2017-12-23T02:26:03.501Z,923.78
2017-12-23T02:27:14.632Z,923.79
2017-12-23T02:27:42.858Z,923.77
2017-12-23T02:28:11.049Z,923.81
2017-12-23T02:28:39.044Z,923.79
2017-12-23T02:29:07.130Z,923.77
2017-12-23T02:29:35.315Z,923.79
2017-12-23T02:30:03.414Z,923.78
2017-12-23T02:30:31.605Z,923.77
2017-12-23T02:30:59.812Z,923.81
2017-12-23T02:31:27.889Z,923.82
2017-12-23T02:31:56.073Z,923.79
2017-12-23T02:33:07.300Z,923.83
2017-12-23T02:33:35.428Z,923.82
2017-12-23T02:34:03.617Z,923.87
2017-12-23T02:34:31.808Z,923.86
2017-12-23T02:34:59.889Z,923.8
2017-12-23T02:35:27.976Z,923.8
2017-12-23T02:35:55.877Z,923.81
2017-12-23T02:36:24.067Z,923.75
2017-12-23T02:36:52.175Z,923.77
2017-12-23T02:37:20.153Z,923.73
2017-12-23T02:37:48.244Z,923.74
2017-12-23T02:38:59.471Z,923.69
2017-12-23T02:39:27.697Z,923.64
2017-12-23T02:39:55.786Z,923.64
2017-12-23T02:40:23.981Z,923.63
2017-12-23T02:40:52.155Z,923.64
2017-12-23T02:41:20.349Z,923.63
2017-12-23T02:41:48.350Z,923.61
2017-12-23T02:42:16.437Z,923.62
2017-12-23T02:42:44.549Z,923.58
2017-12-23T02:43:12.632Z,923.59
2017-12-23T02:43:40.711Z,923.61
2017-12-23T02:44:51.846Z,923.6
2017-12-23T02:45:19.966Z,923.53
2017-12-23T02:45:48.155Z,923.57
2017-12-23T02:46:16.344Z,923.58
2017-12-23T02:46:44.425Z,923.55
2017-12-23T02:47:12.514Z,923.53
2017-12-23T02:47:40.609Z,923.57
2017-12-23T02:48:08.607Z,923.57
2017-12-23T02:48:36.516Z,923.52
2017-12-23T02:49:04.700Z,923.53
2017-12-23T02:49:32.688Z,923.53
2017-12-23T02:50:43.814Z,923.55
2017-12-23T02:51:11.739Z,923.55
2017-12-23T02:51:39.927Z,923.55
2017-12-23T02:52:08.115Z,923.52
2017-12-23T02:52:36.201Z,923.5
2017-12-23T02:53:04.389Z,923.52
2017-12-23T02:53:32.584Z,923.52
2017-12-23T02:54:00.772Z,923.53
2017-12-23T02:54:28.981Z,923.49
2017-12-23T02:54:57.062Z,923.48
2017-12-23T02:55:25.250Z,923.51
2017-12-23T02:56:36.483Z,923.49
2017-12-23T02:57:04.711Z,923.51
2017-12-23T02:57:32.896Z,923.52
2017-12-23T02:58:01.091Z,923.51
2017-12-23T02:58:29.279Z,923.51
2017-12-23T02:58:57.467Z,923.52
2017-12-23T02:59:25.567Z,923.48
2017-12-23T02:59:53.564Z,923.46
2017-12-23T03:00:21.572Z,923.48
2017-12-23T03:00:49.552Z,923.52
2017-12-23T03:01:17.735Z,923.51
2017-12-23T03:02:28.968Z,923.5
2017-12-23T03:02:57.095Z,923.54
2017-12-23T03:03:25.087Z,923.5
2017-12-23T03:03:53.176Z,923.53
2017-12-23T03:04:21.272Z,923.47
2017-12-23T03:04:49.354Z,923.47
2017-12-23T03:05:17.558Z,923.49
2017-12-23T03:05:45.648Z,923.46
2017-12-23T03:06:13.753Z,923.46
2017-12-23T03:06:41.935Z,923.45
2017-12-23T03:07:10.116Z,923.51
2017-12-23T03:08:21.347Z,923.47
2017-12-23T03:08:49.477Z,923.5
2017-12-23T03:09:17.562Z,923.48
2017-12-23T03:09:45.655Z,923.48
2017-12-23T03:10:13.841Z,923.45
2017-12-23T03:10:41.928Z,923.48
2017-12-23T03:11:10.123Z,923.46
2017-12-23T03:11:38.215Z,923.48
2017-12-23T03:12:06.327Z,923.48
2017-12-23T03:12:34.412Z,923.5
2017-12-23T03:13:02.503Z,923.47
2017-12-23T03:14:13.728Z,923.52
2017-12-23T03:14:41.859Z,923.54
2017-12-23T03:15:09.945Z,923.54
2017-12-23T03:15:38.034Z,923.55
2017-12-23T03:16:06.114Z,923.57
2017-12-23T03:16:34.206Z,923.57
2017-12-23T03:17:02.306Z,923.57
2017-12-23T03:17:30.500Z,923.54
2017-12-23T03:17:58.612Z,923.56
2017-12-23T03:18:26.590Z,923.55
2017-12-23T03:18:54.673Z,923.52
2017-12-23T03:20:05.904Z,923.57
2017-12-23T03:20:34.033Z,923.54
2017-12-23T03:21:02.223Z,923.54
2017-12-23T03:21:30.416Z,923.53
2017-12-23T03:21:58.594Z,923.56
2017-12-23T03:22:26.837Z,923.53
2017-12-23T03:22:54.887Z,923.54
2017-12-23T03:23:22.982Z,923.56
2017-12-23T03:23:51.092Z,923.53
2017-12-23T03:24:19.272Z,923.53
2017-12-23T03:24:47.159Z,923.5
2017-12-23T03:25:58.386Z,923.54
2017-12-23T03:26:26.312Z,923.54
2017-12-23T03:26:54.306Z,923.55
2017-12-23T03:27:22.501Z,923.55
2017-12-23T03:27:50.689Z,923.55
2017-12-23T03:28:18.881Z,923.54
2017-12-23T03:28:47.070Z,923.51
2017-12-23T03:29:15.165Z,923.51
2017-12-23T03:29:43.173Z,923.54
2017-12-23T03:30:11.353Z,923.52
2017-12-23T03:30:39.440Z,923.52
2017-12-23T03:31:50.666Z,923.48
2017-12-23T03:32:18.795Z,923.5
2017-12-23T03:32:46.985Z,923.48
2017-12-23T03:33:14.978Z,923.45
2017-12-23T03:33:42.960Z,923.47
2017-12-23T03:34:11.153Z,923.47
2017-12-23T03:34:39.345Z,923.45
2017-12-23T03:35:07.540Z,923.45
2017-12-23T03:35:35.548Z,923.48
2017-12-23T03:36:03.725Z,923.47
2017-12-23T03:36:31.809Z,923.48
2017-12-23T03:37:42.942Z,923.47
2017-12-23T03:38:11.071Z,923.49
2017-12-23T03:38:39.256Z,923.45
2017-12-23T03:39:07.447Z,923.46
2017-12-23T03:39:35.525Z,923.43
2017-12-23T03:40:03.516Z,923.46
2017-12-23T03:40:31.615Z,923.43
2017-12-23T03:40:59.709Z,923.43
2017-12-23T03:41:27.814Z,923.42
2017-12-23T03:41:55.895Z,923.47
2017-12-23T03:42:23.874Z,923.42
2017-12-23T03:43:35.097Z,923.42
2017-12-23T03:44:03.320Z,923.45
2017-12-23T03:44:31.503Z,923.44
2017-12-23T03:44:59.293Z,923.46
2017-12-23T03:45:27.471Z,923.45
2017-12-23T03:45:55.563Z,923.47
2017-12-23T03:46:23.662Z,923.48
2017-12-23T03:46:51.851Z,923.44
2017-12-23T03:47:19.956Z,923.4
2017-12-23T03:47:48.132Z,923.45
2017-12-23T03:48:16.317Z,923.45
2017-12-23T03:49:27.446Z,923.43
2017-12-23T03:49:55.671Z,923.42
2017-12-23T03:50:23.862Z,923.42
2017-12-23T03:50:51.759Z,923.44
2017-12-23T03:51:19.945Z,923.48
2017-12-23T03:51:48.134Z,923.43
2017-12-23T03:52:16.335Z,923.43
2017-12-23T03:52:44.524Z,923.46
2017-12-23T03:53:12.539Z,923.46
2017-12-23T03:53:40.619Z,923.45
2017-12-23T03:54:08.604Z,923.43
2017-12-23T03:55:19.830Z,923.44
2017-12-23T03:55:47.961Z,923.45
2017-12-23T03:56:16.047Z,923.49
2017-12-23T03:56:44.235Z,923.48
2017-12-23T03:57:12.318Z,923.5
2017-12-23T03:57:40.414Z,923.52
2017-12-23T03:58:08.613Z,923.49
2017-12-23T03:58:36.707Z,923.53
2017-12-23T03:59:04.914Z,923.5
2017-12-23T03:59:32.992Z,923.48
2017-12-23T04:00:01.072Z,923.44
2017-12-23T04:01:12.302Z,923.49
2017-12-23T04:01:40.528Z,923.49
2017-12-23T04:02:08.719Z,923.48
2017-12-23T04:02:36.909Z,923.49
2017-12-23T04:03:05.095Z,923.44
2017-12-23T04:03:33.284Z,923.46
2017-12-23T04:04:01.386Z,923.45
2017-12-23T04:04:29.582Z,923.47
2017-12-23T04:04:57.792Z,923.47
2017-12-23T04:05:25.972Z,923.45
2017-12-23T04:05:54.153Z,923.42
2017-12-23T04:07:05.280Z,923.45
2017-12-23T04:07:33.408Z,923.44
2017-12-23T04:08:01.501Z,923.47
2017-12-23T04:08:29.691Z,923.46
2017-12-23T04:08:57.884Z,923.46
2017-12-23T04:09:26.066Z,923.47
2017-12-23T04:09:54.165Z,923.45
2017-12-23T04:10:22.266Z,923.45
2017-12-23T04:10:50.277Z,923.48
2017-12-23T04:11:18.355Z,923.45
2017-12-23T04:11:46.444Z,923.43
2017-12-23T04:12:57.474Z,923.44
2017-12-23T04:13:25.598Z,923.41
2017-12-23T04:13:53.688Z,923.45
2017-12-23T04:14:21.881Z,923.44
2017-12-23T04:14:49.964Z,923.44
2017-12-23T04:15:18.151Z,923.43
2017-12-23T04:15:46.249Z,923.46
2017-12-23T04:16:14.345Z,923.41
2017-12-23T04:16:42.450Z,923.45
2017-12-23T04:17:10.532Z,923.46
2017-12-23T04:17:38.715Z,923.46
2017-12-23T04:18:49.843Z,923.43
2017-12-23T04:19:17.973Z,923.47
2017-12-23T04:19:46.163Z,923.43
2017-12-23T04:20:14.152Z,923.42
2017-12-23T04:20:42.136Z,923.39
2017-12-23T04:21:10.328Z,923.42
2017-12-23T04:21:38.421Z,923.42
2017-12-23T04:22:06.517Z,923.43
2017-12-23T04:22:34.720Z,923.4
2017-12-23T04:23:02.700Z,923.4
2017-12-23T04:23:30.685Z,923.38
2017-12-23T04:24:41.820Z,923.39
2017-12-23T04:25:09.945Z,923.37
2017-12-23T04:25:38.132Z,923.38
2017-12-23T04:26:06.225Z,923.37
2017-12-23T04:26:34.412Z,923.34
2017-12-23T04:27:02.601Z,923.34
2017-12-23T04:27:30.797Z,923.36
2017-12-23T04:27:58.996Z,923.35
2017-12-23T04:28:27.201Z,923.32
2017-12-23T04:28:55.178Z,923.36
2017-12-23T04:29:23.263Z,923.32
2017-12-23T04:30:34.399Z,923.34
2017-12-23T04:31:02.622Z,923.32
2017-12-23T04:31:30.812Z,923.29
2017-12-23T04:31:58.905Z,923.31
2017-12-23T04:32:27.085Z,923.29
2017-12-23T04:32:54.976Z,923.29
2017-12-23T04:33:23.075Z,923.24
2017-12-23T04:33:51.071Z,923.26
2017-12-23T04:34:19.183Z,923.21
2017-12-23T04:34:47.164Z,923.24
2017-12-23T04:35:15.250Z,923.22
2017-12-23T04:36:26.478Z,923.2
2017-12-23T04:36:54.609Z,923.21
2017-12-23T04:37:22.795Z,923.19
2017-12-23T04:37:50.888Z,923.22
2017-12-23T04:38:19.076Z,923.22
2017-12-23T04:38:47.163Z,923.19
2017-12-23T04:39:15.363Z,923.18
2017-12-23T04:39:43.460Z,923.17
2017-12-23T04:40:11.668Z,923.14
2017-12-23T04:40:39.650Z,923.14
2017-12-23T04:41:07.831Z,923.16
2017-12-23T04:42:18.963Z,923.17
2017-12-23T04:42:47.194Z,923.11
2017-12-23T04:43:15.381Z,923.13
2017-12-23T04:43:43.473Z,923.16
2017-12-23T04:44:11.551Z,923.11
2017-12-23T04:44:39.744Z,923.09
2017-12-23T04:45:07.741Z,923.11
2017-12-23T04:45:35.938Z,923.1
2017-12-23T04:46:04.044Z,923.09
2017-12-23T04:46:32.123Z,923.08
2017-12-23T04:47:00.306Z,923.07
2017-12-23T04:48:11.535Z,923.03
2017-12-23T04:48:39.666Z,923.03
2017-12-23T04:49:07.851Z,923
2017-12-23T04:49:36.045Z,923.04
2017-12-23T04:50:04.226Z,923.03
2017-12-23T04:50:32.311Z,923.06
2017-12-23T04:51:00.410Z,923.08
2017-12-23T04:51:28.400Z,923.1
2017-12-23T04:51:56.609Z,923.08
2017-12-23T04:52:24.784Z,923.09
2017-12-23T04:52:52.871Z,923.1
2017-12-23T04:54:04.000Z,923.07
2017-12-23T04:54:32.228Z,923.1
2017-12-23T04:55:00.416Z,923.09
2017-12-23T04:55:28.607Z,923.11
2017-12-23T04:55:56.785Z,923.06
2017-12-23T04:56:24.970Z,923.08
2017-12-23T04:56:53.168Z,923.05
2017-12-23T04:57:21.356Z,923.05
2017-12-23T04:57:49.260Z,923.06
2017-12-23T04:58:17.440Z,923.05
2017-12-23T04:58:45.529Z,923.05
2017-12-23T04:59:56.555Z,923.09
2017-12-23T05:00:24.773Z,923.07
2017-12-23T05:00:52.960Z,923.05
2017-12-23T05:01:21.048Z,923.07
2017-12-23T05:01:49.232Z,923.07
2017-12-23T05:02:17.422Z,923.03
2017-12-23T05:02:45.522Z,923.05
2017-12-23T05:03:13.611Z,923.03
2017-12-23T05:03:41.721Z,923.04
2017-12-23T05:04:09.800Z,923.02
2017-12-23T05:04:37.884Z,923.04
2017-12-23T05:05:49.011Z,923.03
2017-12-23T05:06:17.140Z,923.01
2017-12-23T05:06:45.327Z,923.04
2017-12-23T05:07:13.521Z,923.03
2017-12-23T05:07:41.700Z,923.01
2017-12-23T05:08:09.787Z,923.03
2017-12-23T05:08:37.885Z,922.98
2017-12-23T05:09:05.983Z,922.99
2017-12-23T05:09:34.090Z,922.99
2017-12-23T05:10:02.072Z,923.05
2017-12-23T05:10:30.253Z,923.01
2017-12-23T05:11:41.486Z,923.02
2017-12-23T05:12:09.616Z,923.01
2017-12-23T05:12:37.607Z,923.01
2017-12-23T05:13:05.801Z,922.99
2017-12-23T05:13:33.981Z,922.99
2017-12-23T05:14:02.168Z,922.97
2017-12-23T05:14:30.269Z,922.98
2017-12-23T05:14:58.465Z,922.98
2017-12-23T05:15:26.669Z,923.05
2017-12-23T05:15:54.850Z,923.01
2017-12-23T05:16:23.037Z,922.98
2017-12-23T05:17:34.258Z,922.98
2017-12-23T05:18:02.388Z,922.99
2017-12-23T05:18:30.577Z,923.02
2017-12-23T05:18:58.769Z,923
2017-12-23T05:19:26.944Z,922.98
2017-12-23T05:19:55.144Z,922.96
2017-12-23T05:20:23.244Z,922.98
2017-12-23T05:20:51.335Z,923
2017-12-23T05:21:19.545Z,923.03
2017-12-23T05:21:47.525Z,923.02
2017-12-23T05:22:15.704Z,923.05
2017-12-23T05:23:26.929Z,922.99
2017-12-23T05:23:54.953Z,923.05
2017-12-23T05:24:23.142Z,923.08
2017-12-23T05:24:51.331Z,923.03
2017-12-23T05:25:19.410Z,923.04
2017-12-23T05:25:47.600Z,923.04
2017-12-23T05:26:15.700Z,923.08
2017-12-23T05:26:43.891Z,923.07
2017-12-23T05:27:12.096Z,923.09
2017-12-23T05:27:39.976Z,923.06
2017-12-23T05:28:08.160Z,923.09
2017-12-23T05:29:19.384Z,923.1
2017-12-23T05:29:47.415Z,923.13
2017-12-23T05:30:15.506Z,923.16
2017-12-23T05:30:43.698Z,923.17
2017-12-23T05:31:11.783Z,923.14
2017-12-23T05:31:39.977Z,923.12
2017-12-23T05:32:08.173Z,923.16
2017-12-23T05:32:36.362Z,923.12
2017-12-23T05:33:04.375Z,923.11
2017-12-23T05:33:32.451Z,923.09
2017-12-23T05:34:00.437Z,923.12
2017-12-23T05:35:11.566Z,923.1
2017-12-23T05:35:39.598Z,923.09
2017-12-23T05:36:07.690Z,923.08
2017-12-23T05:36:35.782Z,923.08
2017-12-23T05:37:03.860Z,923.05
2017-12-23T05:37:31.952Z,923.1
2017-12-23T05:38:00.050Z,923.07
2017-12-23T05:38:28.150Z,923.07
2017-12-23T05:38:56.358Z,923.1
2017-12-23T05:39:24.436Z,923.11
2017-12-23T05:39:52.422Z,923.1
2017-12-23T05:41:03.649Z,923.11
2017-12-23T05:41:31.676Z,923.11
2017-12-23T05:41:59.769Z,923.11
2017-12-23T05:42:27.959Z,923.11
2017-12-23T05:42:55.940Z,923.14
2017-12-23T05:43:24.128Z,923.1
2017-12-23T05:43:52.320Z,923.09
2017-12-23T05:44:20.420Z,923.09
2017-12-23T05:44:48.525Z,923.06
2017-12-23T05:45:16.306Z,923.07
2017-12-23T05:45:44.491Z,923.07
2017-12-23T05:46:55.708Z,923.07
2017-12-23T05:47:23.838Z,923.08
2017-12-23T05:47:52.028Z,923.07
2017-12-23T05:48:20.213Z,923.09
2017-12-23T05:48:48.297Z,923.05
2017-12-23T05:49:16.481Z,923.09
2017-12-23T05:49:44.482Z,923.09
2017-12-23T05:50:12.674Z,923.06
2017-12-23T05:50:40.885Z,923.1
2017-12-23T05:51:08.965Z,923.07
2017-12-23T05:51:37.043Z,923.05
2017-12-23T05:52:48.071Z,923.05
2017-12-23T05:53:16.200Z,923.03
2017-12-23T05:53:44.388Z,923.05
2017-12-23T05:54:12.480Z,923.07
2017-12-23T05:54:40.563Z,923.03
2017-12-23T05:55:08.751Z,923.03
2017-12-23T05:55:36.948Z,923.04
2017-12-23T05:56:05.046Z,923.03
2017-12-23T05:56:33.252Z,923.05
2017-12-23T05:57:01.432Z,923.03
2017-12-23T05:57:29.613Z,923.06
2017-12-23T05:58:40.736Z,923.08
2017-12-23T05:59:08.864Z,923.04
2017-12-23T05:59:36.950Z,923.06
2017-12-23T06:00:05.036Z,923.09
2017-12-23T06:00:33.115Z,923.05
2017-12-23T06:01:01.305Z,923.08
2017-12-23T06:01:29.398Z,923.09
2017-12-23T06:01:57.593Z,923.07
2017-12-23T06:02:25.501Z,923.05
2017-12-23T06:02:53.582Z,923.06
2017-12-23T06:03:21.768Z,923.05
2017-12-23T06:04:32.995Z,923.08
2017-12-23T06:05:01.121Z,923.08
2017-12-23T06:05:29.210Z,923.08
2017-12-23T06:05:57.304Z,923.11
2017-12-23T06:06:25.490Z,923.07
2017-12-23T06:06:53.580Z,923.12
2017-12-23T06:07:21.688Z,923.12
2017-12-23T06:07:49.888Z,923.09
2017-12-23T06:08:18.094Z,923.12
2017-12-23T06:08:46.075Z,923.11
2017-12-23T06:09:14.157Z,923.13
2017-12-23T06:10:25.389Z,923.1
2017-12-23T06:10:53.609Z,923.09
2017-12-23T06:11:21.598Z,923.08
2017-12-23T06:11:49.691Z,923.09
2017-12-23T06:12:17.868Z,923.13
2017-12-23T06:12:45.956Z,923.1
2017-12-23T06:13:13.954Z,923.12
2017-12-23T06:13:42.148Z,923.1
2017-12-23T06:14:10.156Z,923.13
2017-12-23T06:14:38.235Z,923.12
2017-12-23T06:15:06.324Z,923.13
2017-12-23T06:16:17.555Z,923.13
2017-12-23T06:16:45.784Z,923.12
2017-12-23T06:17:13.773Z,923.15
2017-12-23T06:17:41.766Z,923.11
2017-12-23T06:18:09.941Z,923.14
2017-12-23T06:18:38.129Z,923.15
2017-12-23T06:19:06.230Z,923.12
2017-12-23T06:19:34.422Z,923.12
2017-12-23T06:20:02.634Z,923.13
2017-12-23T06:20:30.710Z,923.09
2017-12-23T06:20:58.698Z,923.11
2017-12-23T06:22:09.727Z,923.1
2017-12-23T06:22:37.852Z,923.1
2017-12-23T06:23:06.038Z,923.13
2017-12-23T06:23:34.032Z,923.14
2017-12-23T06:24:02.113Z,923.12
2017-12-23T06:24:30.304Z,923.09
2017-12-23T06:24:58.501Z,923.13
2017-12-23T06:25:26.597Z,923.09
2017-12-23T06:25:54.804Z,923.09
2017-12-23T06:26:22.880Z,923.12
2017-12-23T06:26:50.866Z,923.08
2017-12-23T06:28:01.895Z,923.05
2017-12-23T06:28:30.119Z,923.09
2017-12-23T06:28:58.205Z,923.08
2017-12-23T06:29:26.397Z,923.08
2017-12-23T06:29:54.579Z,923.06
2017-12-23T06:30:22.768Z,923.06
2017-12-23T06:30:50.965Z,923.06
2017-12-23T06:31:19.157Z,923.04
2017-12-23T06:31:47.267Z,923.06
2017-12-23T06:32:15.447Z,923.1
2017-12-23T06:32:43.533Z,923.07
2017-12-23T06:33:54.559Z,923.07
2017-12-23T06:34:22.588Z,923.07
2017-12-23T06:34:50.672Z,923.03
2017-12-23T06:35:18.861Z,923.03
2017-12-23T06:35:46.943Z,923.05
2017-12-23T06:36:15.139Z,923.01
2017-12-23T06:36:43.238Z,923.03
2017-12-23T06:37:11.335Z,922.99
2017-12-23T06:37:39.541Z,923
2017-12-23T06:38:07.426Z,923.01
2017-12-23T06:38:35.610Z,922.99
2017-12-23T06:39:46.741Z,923.01
2017-12-23T06:40:14.869Z,923.03
2017-12-23T06:40:43.058Z,923.01
2017-12-23T06:41:11.045Z,923